createdAt,value
2023-01-02T00:00:52.925Z,1.9
2023-01-02T00:02:52.708Z,1.9
2023-01-02T00:04:53.384Z,1.9
2023-01-02T00:06:53.411Z,1.9
2023-01-02T00:08:52.705Z,1.9
2023-01-02T00:10:53.180Z,1.9
2023-01-02T00:12:52.494Z,2
2023-01-02T00:14:52.500Z,1.9
2023-01-02T00:16:52.559Z,1.9
2023-01-02T00:18:52.443Z,1.9
2023-01-02T00:20:52.978Z,1.9
2023-01-02T00:22:52.353Z,2
2023-01-02T00:24:52.383Z,2
2023-01-02T00:26:52.344Z,2
2023-01-02T00:28:52.258Z,2
2023-01-02T00:30:52.381Z,2
2023-01-02T00:32:52.361Z,1.9
2023-01-02T00:34:52.297Z,1.9
2023-01-02T00:36:52.228Z,1.9
2023-01-02T00:38:54.727Z,1.9
2023-01-02T00:40:52.187Z,2
2023-01-02T00:42:52.218Z,2
2023-01-02T00:44:52.276Z,2
2023-01-02T00:46:52.272Z,2
2023-01-02T00:48:52.270Z,2
2023-01-02T00:50:52.256Z,1.9
2023-01-02T00:52:52.204Z,1.9
2023-01-02T00:54:52.174Z,1.9
2023-01-02T00:56:52.156Z,1.9
2023-01-02T00:58:52.137Z,1.9
2023-01-02T01:00:52.442Z,1.9
2023-01-02T01:02:54.853Z,1.9
2023-01-02T01:04:52.110Z,1.8
2023-01-02T01:06:52.068Z,1.8
2023-01-02T01:08:52.033Z,1.8
2023-01-02T01:10:51.996Z,1.8
2023-01-02T01:12:52.214Z,1.8
2023-01-02T01:14:52.045Z,1.9
2023-01-02T01:16:51.865Z,1.9
2023-01-02T01:18:55.157Z,1.9
2023-01-02T01:20:51.853Z,1.8
2023-01-02T01:22:51.905Z,1.7
2023-01-02T01:24:51.886Z,1.7
2023-01-02T01:26:51.764Z,1.7
2023-01-02T01:28:52.966Z,1.7
2023-01-02T01:30:51.745Z,1.6
2023-01-02T01:32:51.767Z,1.6
2023-01-02T01:34:51.632Z,1.6
2023-01-02T01:36:51.693Z,1.6
2023-01-02T01:38:51.751Z,1.6
2023-01-02T01:40:51.556Z,1.6
2023-01-02T01:42:54.954Z,1.5
2023-01-02T01:44:52.815Z,1.7
2023-01-02T01:46:51.433Z,1.7
2023-01-02T01:48:57.568Z,1.7
2023-01-02T01:50:51.421Z,1.6
2023-01-02T01:52:56.698Z,1.6
2023-01-02T01:54:56.186Z,1.6
2023-01-02T01:56:56.701Z,1.6
2023-01-02T01:58:51.427Z,1.6
2023-01-02T02:00:51.771Z,1.5
2023-01-02T02:02:56.215Z,1.5
2023-01-02T02:04:51.645Z,1.5
2023-01-02T02:06:51.740Z,1.5
2023-01-02T02:08:58.291Z,1.5
2023-01-02T02:10:52.563Z,1.5
2023-01-02T02:12:50.950Z,1.5
2023-01-02T02:14:50.933Z,1.5
2023-01-02T02:16:56.925Z,1.5
2023-01-02T02:19:10.885Z,1.4
2023-01-02T02:21:00.115Z,1.4
2023-01-02T02:23:22.919Z,1.4
2023-01-02T02:25:12.962Z,1.4
2023-01-02T02:27:08.555Z,1.4
2023-01-02T02:29:20.386Z,1.5
2023-01-02T02:30:55.059Z,1.4
2023-01-02T02:33:03.127Z,1.4
2023-01-02T02:34:59.060Z,1.4
2023-01-02T02:36:57.615Z,1.4
2023-01-02T02:39:01.113Z,1.4
2023-01-02T02:41:00.371Z,1.3
2023-01-02T02:42:58.231Z,1.3
2023-01-02T02:44:58.212Z,1.3
2023-01-02T02:46:55.921Z,1.1
2023-01-02T02:48:58.357Z,1.1
2023-01-02T02:50:59.305Z,1
2023-01-02T02:52:57.352Z,1
2023-01-02T02:54:56.306Z,1
2023-01-02T02:56:52.910Z,1
2023-01-02T02:58:51.260Z,1
2023-01-02T03:00:50.149Z,0.9
2023-01-02T03:02:50.511Z,0.9
2023-01-02T03:04:55.235Z,0.9
2023-01-02T03:07:03.800Z,0.9
2023-01-02T03:09:02.535Z,0.7
2023-01-02T03:10:56.034Z,0.7
2023-01-02T03:13:04.304Z,0.7
2023-01-02T03:14:56.983Z,0.6
2023-01-02T03:16:56.056Z,0.6
2023-01-02T03:18:55.952Z,0.6
2023-01-02T03:20:58.038Z,0.4
2023-01-02T03:22:54.781Z,0.4
2023-01-02T03:24:53.656Z,0.4
2023-01-02T03:26:54.547Z,0.4
2023-01-02T03:28:53.720Z,0.4
2023-01-02T03:30:52.190Z,0.4
2023-01-02T03:32:55.633Z,0.5
2023-01-02T03:34:50.374Z,0.4
2023-01-02T03:36:54.845Z,0.4
2023-01-02T03:38:58.268Z,0.4
2023-01-02T03:40:54.413Z,0.3
2023-01-02T03:42:54.333Z,0.3
2023-01-02T03:44:56.085Z,0.3
2023-01-02T03:46:53.460Z,0.3
2023-01-02T03:48:55.013Z,0.3
2023-01-02T03:50:52.940Z,0.1
2023-01-02T03:52:48.768Z,0.1
2023-01-02T03:54:48.955Z,0.1
2023-01-02T03:56:57.073Z,0.1
2023-01-02T03:58:53.947Z,0.1
2023-01-02T04:00:53.582Z,0.2
2023-01-02T04:02:54.454Z,0.2
2023-01-02T04:04:53.513Z,0.2
2023-01-02T04:06:57.523Z,0.1
2023-01-02T04:08:54.826Z,0.1
2023-01-02T04:10:56.322Z,0.1
2023-01-02T04:12:52.592Z,0.1
2023-01-02T04:14:51.874Z,0.1
2023-01-02T04:16:50.188Z,0.1
2023-01-02T04:18:51.242Z,0.1
2023-01-02T04:20:52.899Z,0.1
2023-01-02T04:22:53.637Z,0.1
2023-01-02T04:24:58.853Z,0.1
2023-01-02T04:26:52.032Z,0.1
2023-01-02T04:28:48.397Z,0.1
2023-01-02T04:30:54.173Z,0
2023-01-02T04:32:48.141Z,0
2023-01-02T04:34:50.464Z,0
2023-01-02T04:36:47.360Z,0
2023-01-02T04:38:47.093Z,0
2023-01-02T04:40:47.376Z,-0.1
2023-01-02T04:42:46.907Z,-0.1
2023-01-02T04:44:47.150Z,0
2023-01-02T04:46:46.815Z,0
2023-01-02T04:48:46.809Z,-0.1
2023-01-02T04:50:46.660Z,-0.2
2023-01-02T04:52:46.513Z,-0.3
2023-01-02T04:54:46.459Z,-0.3
2023-01-02T04:56:46.316Z,-0.1
2023-01-02T04:58:46.930Z,-0.1
2023-01-02T05:00:46.257Z,-0.3
2023-01-02T05:02:46.195Z,-0.3
2023-01-02T05:04:45.957Z,-0.4
2023-01-02T05:06:45.958Z,-0.4
2023-01-02T05:08:45.840Z,-0.4
2023-01-02T05:10:45.779Z,-0.4
2023-01-02T05:12:45.733Z,-0.4
2023-01-02T05:14:45.477Z,-0.5
2023-01-02T05:16:45.413Z,-0.5
2023-01-02T05:18:45.381Z,-0.5
2023-01-02T05:20:45.322Z,-0.6
2023-01-02T05:22:45.315Z,-0.7
2023-01-02T05:24:45.200Z,-0.7
2023-01-02T05:26:44.938Z,-0.7
2023-01-02T05:28:45.123Z,-0.7
2023-01-02T05:30:44.836Z,-0.6
2023-01-02T05:32:44.834Z,-0.8
2023-01-02T05:34:44.752Z,-0.8
2023-01-02T05:36:44.654Z,-0.8
2023-01-02T05:38:44.530Z,-0.7
2023-01-02T05:40:44.401Z,-0.6
2023-01-02T05:42:44.585Z,-0.8
2023-01-02T05:44:44.214Z,-0.8
2023-01-02T05:46:44.307Z,-0.9
2023-01-02T05:48:44.837Z,-0.9
2023-01-02T05:50:43.918Z,-0.8
2023-01-02T05:52:46.021Z,-0.8
2023-01-02T05:54:43.890Z,-0.8
2023-01-02T05:56:43.724Z,-0.8
2023-01-02T05:58:45.628Z,-0.8
2023-01-02T06:00:43.505Z,-0.8
2023-01-02T06:02:47.969Z,-0.8
2023-01-02T06:04:43.416Z,-0.8
2023-01-02T06:06:43.335Z,-0.8
2023-01-02T06:07:40.763Z,-0.7
2023-01-02T06:07:43.295Z,-0.7
2023-01-02T06:08:43.572Z,-0.7
2023-01-02T06:10:49.385Z,-0.8
2023-01-02T06:12:42.943Z,-0.8
2023-01-02T06:14:42.892Z,-0.8
2023-01-02T06:16:42.838Z,-0.8
2023-01-02T06:18:42.800Z,-0.8
2023-01-02T06:20:42.747Z,-1
2023-01-02T06:22:42.509Z,-1
2023-01-02T06:24:42.496Z,-0.8
2023-01-02T06:26:42.663Z,-0.7
2023-01-02T06:28:44.750Z,-0.8
2023-01-02T06:30:42.270Z,-0.8
2023-01-02T06:32:44.970Z,-0.8
2023-01-02T06:34:42.092Z,-0.8
2023-01-02T06:35:23.862Z,-0.6
2023-01-02T06:35:57.061Z,-0.8
2023-01-02T06:36:44.161Z,-0.8
2023-01-02T06:38:42.299Z,-0.8
2023-01-02T06:40:51.907Z,-0.9
2023-01-02T06:42:43.175Z,-0.9
2023-01-02T06:44:42.116Z,-0.9
2023-01-02T06:46:41.650Z,-0.7
2023-01-02T06:48:42.289Z,-0.7
2023-01-02T06:50:41.856Z,-0.8
2023-01-02T06:52:41.589Z,-0.8
2023-01-02T06:54:41.439Z,-0.7
2023-01-02T06:56:41.459Z,-0.7
2023-01-02T06:58:41.306Z,-0.8
2023-01-02T07:00:41.347Z,-0.9
2023-01-02T07:02:41.317Z,-0.9
2023-01-02T07:04:41.179Z,-0.9
2023-01-02T07:06:41.728Z,-0.9
2023-01-02T07:08:41.755Z,-0.7
2023-01-02T07:10:40.964Z,-0.7
2023-01-02T07:12:40.890Z,-0.8
2023-01-02T07:14:40.931Z,-0.8
2023-01-02T07:16:40.832Z,-0.7
2023-01-02T07:18:40.791Z,-0.8
2023-01-02T07:20:40.638Z,-0.9
2023-01-02T07:22:40.680Z,-0.7
2023-01-02T07:24:40.443Z,-0.8
2023-01-02T07:26:40.363Z,-0.8
2023-01-02T07:28:40.380Z,-0.8
2023-01-02T07:30:40.299Z,-0.7
2023-01-02T07:32:40.310Z,-0.7
2023-01-02T07:34:40.132Z,-0.8
2023-01-02T07:36:40.116Z,-0.8
2023-01-02T07:38:40.104Z,-0.8
2023-01-02T07:40:40.069Z,-0.8
2023-01-02T07:42:39.833Z,-0.8
2023-01-02T07:44:39.861Z,-0.8
2023-01-02T07:46:39.753Z,-0.8
2023-01-02T07:48:39.912Z,-0.8
2023-01-02T07:50:39.882Z,-0.8
2023-01-02T07:52:41.696Z,-0.8
2023-01-02T07:54:39.353Z,-0.8
2023-01-02T07:56:39.349Z,-0.8
2023-01-02T07:58:39.374Z,-0.8
2023-01-02T08:00:39.276Z,-0.8
2023-01-02T08:02:39.373Z,-0.8
2023-01-02T08:04:39.111Z,-0.8
2023-01-02T08:06:39.464Z,-0.8
2023-01-02T08:08:39.945Z,-0.8
2023-01-02T08:10:39.044Z,-0.8
2023-01-02T08:12:39.036Z,-0.6
2023-01-02T08:14:38.703Z,-0.6
2023-01-02T08:16:38.713Z,-0.6
2023-01-02T08:18:38.804Z,-0.6
2023-01-02T08:20:38.648Z,-0.7
2023-01-02T08:22:38.398Z,-0.6
2023-01-02T08:24:38.272Z,-0.6
2023-01-02T08:26:38.291Z,-0.6
2023-01-02T08:28:39.869Z,-0.6
2023-01-02T08:30:39.910Z,-0.6
2023-01-02T08:32:38.765Z,-0.6
2023-01-02T08:34:37.863Z,-0.6
2023-01-02T08:36:37.821Z,-0.6
2023-01-02T08:38:38.144Z,-0.6
2023-01-02T08:40:37.897Z,-0.6
2023-01-02T08:42:37.700Z,-0.6
2023-01-02T08:44:37.586Z,-0.6
2023-01-02T08:46:42.625Z,-0.6
2023-01-02T08:48:37.380Z,-0.6
2023-01-02T08:50:37.435Z,-0.6
2023-01-02T08:52:37.331Z,-0.6
2023-01-02T08:54:37.328Z,-0.5
2023-01-02T08:56:37.097Z,-0.5
2023-01-02T08:58:36.957Z,-0.5
2023-01-02T09:00:36.781Z,-0.6
2023-01-02T09:02:37.589Z,-0.6
2023-01-02T09:04:36.765Z,-0.6
2023-01-02T09:06:37.191Z,-0.6
2023-01-02T09:08:36.603Z,-0.6
2023-01-02T09:10:36.372Z,-0.6
2023-01-02T09:12:36.362Z,-0.5
2023-01-02T09:14:36.360Z,-0.5
2023-01-02T09:16:37.157Z,-0.5
2023-01-02T09:18:36.906Z,-0.6
2023-01-02T09:20:40.310Z,-0.6
2023-01-02T09:22:36.474Z,-0.5
2023-01-02T09:24:35.758Z,-0.5
2023-01-02T09:26:36.001Z,-0.5
2023-01-02T09:28:36.271Z,-0.6
2023-01-02T09:30:35.999Z,-0.5
2023-01-02T09:32:35.504Z,-0.4
2023-01-02T09:34:35.486Z,-0.4
2023-01-02T09:36:35.698Z,-0.6
2023-01-02T09:38:35.798Z,-0.6
2023-01-02T09:40:38.508Z,-0.5
2023-01-02T09:42:35.260Z,-0.5
2023-01-02T09:44:38.977Z,-0.5
2023-01-02T09:46:42.482Z,-0.5
2023-01-02T09:48:36.023Z,-0.5
2023-01-02T09:50:35.351Z,-0.5
2023-01-02T09:52:37.768Z,-0.3
2023-01-02T09:54:34.735Z,-0.3
2023-01-02T09:56:39.758Z,-0.3
2023-01-02T09:58:40.159Z,-0.3
2023-01-02T10:00:36.912Z,-0.5
2023-01-02T10:02:45.195Z,-0.5
2023-01-02T10:04:52.484Z,-0.3
2023-01-02T10:06:41.390Z,-0.3
2023-01-02T10:08:45.406Z,-0.2
2023-01-02T10:10:40.245Z,-0.1
2023-01-02T10:12:41.908Z,-0.1
2023-01-02T10:14:44.933Z,-0.1
2023-01-02T10:16:40.571Z,-0.2
2023-01-02T10:18:39.145Z,-0.1
2023-01-02T10:20:39.308Z,-0.2
2023-01-02T10:22:39.993Z,-0.2
2023-01-02T10:24:41.437Z,-0.1
2023-01-02T10:26:37.013Z,-0.1
2023-01-02T10:28:43.401Z,-0.1
2023-01-02T10:30:40.743Z,0.1
2023-01-02T10:32:34.928Z,0.1
2023-01-02T10:34:39.123Z,-0.1
2023-01-02T10:36:39.178Z,-0.1
2023-01-02T10:38:36.131Z,0
2023-01-02T10:40:33.410Z,0
2023-01-02T10:42:33.540Z,0
2023-01-02T10:44:34.945Z,0
2023-01-02T10:46:35.499Z,0
2023-01-02T10:48:36.389Z,-0.2
2023-01-02T10:50:40.379Z,-0.2
2023-01-02T10:52:35.492Z,-0.2
2023-01-02T10:54:51.138Z,-0.2
2023-01-02T10:56:35.635Z,-0.2
2023-01-02T10:58:33.981Z,-0.1
2023-01-02T11:00:35.055Z,0
2023-01-02T11:02:39.961Z,0
2023-01-02T11:04:32.376Z,-0.2
2023-01-02T11:06:39.345Z,-0.2
2023-01-02T11:08:38.024Z,-0.2
2023-01-02T11:10:34.522Z,-0.2
2023-01-02T11:12:45.619Z,-0.3
2023-01-02T11:14:34.357Z,-0.3
2023-01-02T11:16:38.410Z,-0.2
2023-01-02T11:18:34.067Z,-0.2
2023-01-02T11:20:34.988Z,-0.1
2023-01-02T11:22:35.692Z,-0.1
2023-01-02T11:24:31.742Z,-0.1
2023-01-02T11:26:33.905Z,-0.1
2023-01-02T11:28:34.147Z,-0.1
2023-01-02T11:30:35.960Z,-0.1
2023-01-02T11:32:37.547Z,-0.2
2023-01-02T11:34:35.980Z,-0.1
2023-01-02T11:36:31.058Z,-0.1
2023-01-02T11:38:42.181Z,-0.1
2023-01-02T11:40:31.930Z,0
2023-01-02T11:42:38.128Z,0
2023-01-02T11:44:33.866Z,0
2023-01-02T11:46:35.028Z,0
2023-01-02T11:48:30.697Z,0
2023-01-02T11:50:34.348Z,0.1
2023-01-02T11:52:39.642Z,-0.1
2023-01-02T11:54:38.924Z,-0.1
2023-01-02T11:56:33.816Z,-0.1
2023-01-02T11:58:36.673Z,-0.2
2023-01-02T12:00:34.590Z,-0.1
2023-01-02T12:02:36.245Z,-0.1
2023-01-02T12:04:30.137Z,-0.4
2023-01-02T12:06:46.728Z,-0.4
2023-01-02T12:08:44.534Z,-0.4
2023-01-02T12:10:43.227Z,-0.5
2023-01-02T12:12:43.956Z,-0.5
2023-01-02T12:14:55.071Z,-0.5
2023-01-02T12:16:39.127Z,-0.5
2023-01-02T12:18:48.499Z,-0.6
2023-01-02T12:20:42.381Z,-0.6
2023-01-02T12:22:56.668Z,-0.6
2023-01-02T12:24:44.147Z,-0.6
2023-01-02T12:26:36.673Z,-0.6
2023-01-02T12:28:47.378Z,-0.8
2023-01-02T12:30:34.172Z,-0.8
2023-01-02T12:33:01.063Z,-0.8
2023-01-02T12:34:46.893Z,-1
2023-01-02T12:36:47.790Z,-0.9
2023-01-02T12:38:38.262Z,-0.9
2023-01-02T12:40:39.751Z,-0.8
2023-01-02T12:48:43.868Z,-1
2023-01-02T12:50:49.434Z,-1
2023-01-02T12:52:43.664Z,-1
2023-01-02T12:56:37.781Z,-1.1
2023-01-02T12:58:39.939Z,-1.1
2023-01-02T13:00:43.125Z,-1.2
2023-01-02T13:02:43.192Z,-1.2
2023-01-02T13:04:32.932Z,-1.2
2023-01-02T13:06:45.146Z,-1.2
2023-01-02T13:08:31.611Z,-1.2
2023-01-02T13:10:28.634Z,-1.2
2023-01-02T13:12:29.692Z,-1.2
2023-01-02T13:14:34.841Z,-1.2
2023-01-02T13:16:26.783Z,-1.2
2023-01-02T13:18:36.777Z,-1.2
2023-01-02T13:20:35.290Z,-1.2
2023-01-02T13:22:34.180Z,-1.4
2023-01-02T13:24:26.573Z,-1.4
2023-01-02T13:26:28.934Z,-1.4
2023-01-02T13:28:25.859Z,-1.4
2023-01-02T13:30:44.087Z,-1.3
2023-01-02T13:32:28.065Z,-1.3
2023-01-02T13:34:28.156Z,-1.3
2023-01-02T13:36:27.971Z,-1.3
2023-01-02T13:38:28.656Z,-1.3
2023-01-02T13:40:28.720Z,-1.4
2023-01-02T13:42:27.926Z,-1.4
2023-01-02T13:44:32.459Z,-1.4
2023-01-02T13:47:01.961Z,-1.4
2023-01-02T13:48:31.280Z,-1.4
2023-01-02T13:50:27.807Z,-1.5
2023-01-02T13:52:24.354Z,-1.5
2023-01-02T13:54:35.780Z,-1.5
2023-01-02T13:56:25.848Z,-1.5
2023-01-02T13:58:41.345Z,-1.5
2023-01-02T14:00:34.180Z,-1.5
2023-01-02T14:02:23.775Z,-1.5
2023-01-02T14:04:30.786Z,-1.7
2023-01-02T14:06:32.759Z,-1.7
2023-01-02T14:08:24.216Z,-1.7
2023-01-02T14:10:40.535Z,-1.7
2023-01-02T14:12:23.022Z,-1.7
2023-01-02T14:14:28.010Z,-1.7
2023-01-02T14:16:44.138Z,-1.7
2023-01-02T14:18:30.502Z,-1.7
2023-01-02T14:20:25.679Z,-1.7
2023-01-02T14:22:22.403Z,-1.7
2023-01-02T14:24:30.219Z,-1.7
2023-01-02T14:26:24.656Z,-1.6
2023-01-02T14:28:24.693Z,-1.6
2023-01-02T14:30:29.280Z,-1.7
2023-01-02T14:32:26.169Z,-1.7
2023-01-02T14:34:24.058Z,-1.7
2023-01-02T14:36:33.931Z,-1.7
2023-01-02T14:38:24.313Z,-1.7
2023-01-02T14:40:35.429Z,-1.8
2023-01-02T14:42:31.272Z,-1.8
2023-01-02T14:44:21.356Z,-1.8
2023-01-02T14:46:24.597Z,-1.8
2023-01-02T14:48:28.888Z,-1.8
2023-01-02T14:50:25.528Z,-1.7
2023-01-02T14:52:27.325Z,-1.7
2023-01-02T14:54:24.555Z,-1.7
2023-01-02T14:56:23.853Z,-1.7
2023-01-02T14:58:36.431Z,-1.7
2023-01-02T15:00:26.979Z,-1.8
2023-01-02T15:02:29.131Z,-1.8
2023-01-02T15:04:26.528Z,-1.8
2023-01-02T15:06:31.020Z,-1.8
2023-01-02T15:08:29.341Z,-1.8
2023-01-02T15:10:22.459Z,-1.9
2023-01-02T15:12:23.157Z,-1.9
2023-01-02T15:14:23.825Z,-1.9
2023-01-02T15:16:22.696Z,-1.9
2023-01-02T15:18:24.466Z,-1.9
2023-01-02T15:20:23.216Z,-1.8
2023-01-02T15:22:27.651Z,-1.8
2023-01-02T15:24:21.548Z,-1.8
2023-01-02T15:26:33.091Z,-1.9
2023-01-02T15:28:25.455Z,-1.9
2023-01-02T15:30:26.162Z,-1.9
2023-01-02T15:32:20.947Z,-1.9
2023-01-02T15:34:24.772Z,-1.9
2023-01-02T15:36:26.745Z,-1.9
2023-01-02T15:38:20.359Z,-1.9
2023-01-02T15:40:24.948Z,-1.8
2023-01-02T15:42:21.247Z,-1.8
2023-01-02T15:44:21.828Z,-1.9
2023-01-02T15:46:18.026Z,-1.9
2023-01-02T15:48:20.024Z,-1.9
2023-01-02T15:50:21.333Z,-1.8
2023-01-02T15:52:21.631Z,-1.8
2023-01-02T15:54:17.206Z,-2
2023-01-02T15:56:31.564Z,-2
2023-01-02T15:58:24.531Z,-2
2023-01-02T16:00:32.792Z,-2
2023-01-02T16:02:34.456Z,-2.1
2023-01-02T16:04:24.569Z,-2.1
2023-01-02T16:06:22.987Z,-2.1
2023-01-02T16:08:20.145Z,-2.1
2023-01-02T16:10:19.515Z,-2.2
2023-01-02T16:12:20.645Z,-2.2
2023-01-02T16:14:18.872Z,-2.1
2023-01-02T16:16:17.636Z,-2.1
2023-01-02T16:18:15.415Z,-2.1
2023-01-02T16:20:18.346Z,-2
2023-01-02T16:22:19.514Z,-2
2023-01-02T16:24:19.512Z,-2
2023-01-02T16:26:16.899Z,-2
2023-01-02T16:28:35.330Z,-2.2
2023-01-02T16:30:33.919Z,-2.1
2023-01-02T16:32:24.708Z,-2.1
2023-01-02T16:34:24.403Z,-2.3
2023-01-02T16:36:20.811Z,-2.3
2023-01-02T16:38:20.687Z,-2.2
2023-01-02T16:41:01.025Z,-2.2
2023-01-02T16:42:13.929Z,-2.2
2023-01-02T16:44:15.760Z,-2.3
2023-01-02T16:46:15.442Z,-2.3
2023-01-02T16:48:16.491Z,-2.3
2023-01-02T16:50:17.404Z,-2.3
2023-01-02T16:52:13.238Z,-2.3
2023-01-02T16:54:14.980Z,-2.3
2023-01-02T16:56:14.592Z,-2.3
2023-01-02T16:58:13.101Z,-2.3
2023-01-02T17:00:14.105Z,-2.3
2023-01-02T17:02:13.802Z,-2.3
2023-01-02T17:04:13.469Z,-2.5
2023-01-02T17:06:14.320Z,-2.5
2023-01-02T17:08:12.273Z,-2.5
2023-01-02T17:10:12.562Z,-2.5
2023-01-02T17:12:13.112Z,-2.5
2023-01-02T17:14:11.795Z,-2.5
2023-01-02T17:16:11.664Z,-2.3
2023-01-02T17:18:12.245Z,-2.3
2023-01-02T17:20:13.527Z,-2.4
2023-01-02T17:22:11.333Z,-2.4
2023-01-02T17:24:11.093Z,-2.4
2023-01-02T17:26:11.045Z,-2.4
2023-01-02T17:28:11.329Z,-2.4
2023-01-02T17:30:13.554Z,-2.4
2023-01-02T17:32:11.221Z,-2.4
2023-01-02T17:34:10.424Z,-2.6
2023-01-02T17:36:10.456Z,-2.6
2023-01-02T17:38:10.207Z,-2.6
2023-01-02T17:40:11.983Z,-2.7
2023-01-02T17:42:11.540Z,-2.7
2023-01-02T17:44:09.848Z,-2.7
2023-01-02T17:46:38.769Z,-2.6
2023-01-02T17:52:20.258Z,-2.7
2023-01-02T17:52:41.193Z,-2.7
2023-01-02T17:54:41.164Z,-2.7
2023-01-02T17:56:40.872Z,-2.7
2023-01-02T17:58:41.269Z,-2.9
2023-01-02T18:00:43.718Z,-2.7
2023-01-02T18:02:41.553Z,-2.7
2023-01-02T18:04:40.463Z,-2.7
2023-01-02T18:06:40.691Z,-2.7
2023-01-02T18:07:32.621Z,-2.3
2023-01-02T18:18:25.940Z,-2.9
2023-01-02T18:18:50.210Z,-2.5
2023-01-02T18:19:36.525Z,-2.9
2023-01-02T18:20:39.937Z,-2.9
2023-01-02T18:22:46.106Z,-3
2023-01-02T18:24:46.377Z,-2.6
2023-01-02T18:25:15.949Z,-2.8
2023-01-02T18:26:39.099Z,-2.8
2023-01-02T18:28:42.807Z,-3
2023-01-02T18:30:38.868Z,-3
2023-01-02T18:32:41.264Z,-3
2023-01-02T18:34:52.437Z,-3
2023-01-02T18:36:39.588Z,-3
2023-01-02T18:38:39.014Z,-3
2023-01-02T18:40:39.295Z,-3.1
2023-01-02T18:42:38.297Z,-3.1
2023-01-02T18:44:41.144Z,-3.1
2023-01-02T18:47:02.728Z,-3.1
2023-01-02T18:48:38.959Z,-3.1
2023-01-02T18:50:38.225Z,-3.1
2023-01-02T18:52:39.693Z,-3.1
2023-01-02T18:54:42.561Z,-3.1
2023-01-02T18:56:37.205Z,-3.1
2023-01-02T18:58:41.070Z,-3.1
2023-01-02T19:00:39.155Z,-3.2
2023-01-02T19:02:52.903Z,-3.2
2023-01-02T19:04:37.669Z,-3.2
2023-01-02T19:06:41.493Z,-3.2
2023-01-02T19:08:37.459Z,-3.2
2023-01-02T19:10:38.446Z,-3.2
2023-01-02T19:12:42.525Z,-3.2
2023-01-02T19:14:38.568Z,-3.3
2023-01-02T19:16:35.772Z,-3.2
2023-01-02T19:18:39.209Z,-3.2
2023-01-02T19:20:35.858Z,-3.2
2023-01-02T19:22:35.326Z,-3.1
2023-01-02T19:24:36.500Z,-3.1
2023-01-02T19:26:39.653Z,-3.1
2023-01-02T19:28:35.832Z,-3.1
2023-01-02T19:30:34.849Z,-3.1
2023-01-02T19:32:35.783Z,-3.1
2023-01-02T19:34:42.130Z,-3.2
2023-01-02T19:36:36.785Z,-3.2
2023-01-02T19:38:35.504Z,-3.2
2023-01-02T19:40:33.966Z,-3.2
2023-01-02T19:42:34.014Z,-3.2
2023-01-02T19:44:34.136Z,-3
2023-01-02T19:46:34.144Z,-3
2023-01-02T19:48:33.468Z,-2.9
2023-01-02T19:50:33.359Z,-2.9
2023-01-02T19:52:33.378Z,-2.9
2023-01-02T19:54:33.387Z,-2.9
2023-01-02T19:56:32.686Z,-2.8
2023-01-02T19:58:32.615Z,-2.8
2023-01-02T20:00:32.694Z,-2.8
2023-01-02T20:02:32.908Z,-2.8
2023-01-02T20:04:32.105Z,-2.7
2023-01-02T20:06:31.956Z,-2.7
2023-01-02T20:08:32.368Z,-2.7
2023-01-02T20:10:31.749Z,-2.7
2023-01-02T20:12:31.583Z,-2.7
2023-01-02T20:14:31.658Z,-2.7
2023-01-02T20:16:31.245Z,-2.7
2023-01-02T20:18:31.637Z,-2.7
2023-01-02T20:20:30.980Z,-2.7
2023-01-02T20:22:31.299Z,-2.7
2023-01-02T20:24:31.212Z,-2.7
2023-01-02T20:26:30.617Z,-2.7
2023-01-02T20:28:30.478Z,-2.7
2023-01-02T20:30:30.341Z,-2.7
2023-01-02T20:32:31.449Z,-2.6
2023-01-02T20:34:30.093Z,-2.6
2023-01-02T20:36:30.542Z,-2.7
2023-01-02T20:38:30.463Z,-2.6
2023-01-02T20:40:29.654Z,-2.5
2023-01-02T20:42:29.590Z,-2.5
2023-01-02T20:44:29.381Z,-2.5
2023-01-02T20:46:29.325Z,-2.5
2023-01-02T20:48:29.133Z,-2.5
2023-01-02T20:50:29.149Z,-2.5
2023-01-02T20:52:29.934Z,-2.5
2023-01-02T20:54:28.760Z,-2.5
2023-01-02T20:56:28.645Z,-2.5
2023-01-02T20:58:28.558Z,-2.5
2023-01-02T21:00:28.422Z,-2.4
2023-01-02T21:02:28.318Z,-2.4
2023-01-02T21:04:34.133Z,-2.4
2023-01-02T21:06:27.999Z,-2.4
2023-01-02T21:08:28.845Z,-2.4
2023-01-02T21:10:28.158Z,-2.5
2023-01-02T21:12:27.638Z,-2.5
2023-01-02T21:14:30.036Z,-2.5
2023-01-02T21:16:27.762Z,-2.5
2023-01-02T21:18:28.966Z,-2.6
2023-01-02T21:20:27.400Z,-2.5
2023-01-02T21:22:26.899Z,-2.5
2023-01-02T21:24:26.875Z,-2.5
2023-01-02T21:26:26.823Z,-2.7
2023-01-02T21:28:26.771Z,-2.7
2023-01-02T21:30:26.889Z,-2.6
2023-01-02T21:32:26.297Z,-2.6
2023-01-02T21:34:26.181Z,-2.7
2023-01-02T21:36:26.117Z,-2.7
2023-01-02T21:38:27.139Z,-2.7
2023-01-02T21:40:25.885Z,-2.7
2023-01-02T21:42:25.737Z,-2.7
2023-01-02T21:44:25.635Z,-2.7
2023-01-02T21:46:25.524Z,-2.7
2023-01-02T21:48:25.238Z,-2.7
2023-01-02T21:50:26.063Z,-2.8
2023-01-02T21:52:25.153Z,-2.8
2023-01-02T21:54:24.905Z,-2.8
2023-01-02T21:56:24.715Z,-2.8
2023-01-02T21:58:24.618Z,-2.8
2023-01-02T22:00:25.860Z,-2.8
2023-01-02T22:02:32.914Z,-2.8
2023-01-02T22:04:24.075Z,-2.8
2023-01-02T22:06:24.062Z,-2.8
2023-01-02T22:08:23.906Z,-2.8
2023-01-02T22:10:23.664Z,-2.8
2023-01-02T22:12:23.537Z,-2.8
2023-01-02T22:14:25.903Z,-2.8
2023-01-02T22:16:23.402Z,-2.8
2023-01-02T22:18:23.159Z,-2.8
2023-01-02T22:20:23.027Z,-2.9
2023-01-02T22:22:22.851Z,-3
2023-01-02T22:24:24.653Z,-3
2023-01-02T22:26:22.726Z,-2.8
2023-01-02T22:28:22.896Z,-2.8
2023-01-02T22:30:29.386Z,-2.8
2023-01-02T22:32:22.431Z,-2.8
2023-01-02T22:34:24.762Z,-2.8
2023-01-02T22:36:23.962Z,-2.8
2023-01-02T22:38:21.960Z,-2.8
2023-01-02T22:40:21.666Z,-2.9
2023-01-02T22:42:58.481Z,-2.9
2023-01-02T22:44:24.612Z,-2.8
2023-01-02T22:46:24.707Z,-3
2023-01-02T22:48:23.056Z,-2.9
2023-01-02T22:50:27.906Z,-2.7
2023-01-02T22:52:21.992Z,-2.7
2023-01-02T22:54:23.048Z,-2.9
2023-01-02T22:56:22.271Z,-2.8
2023-01-02T22:58:21.310Z,-2.8
2023-01-02T23:00:21.520Z,-2.9
2023-01-02T23:02:21.368Z,-2.9
2023-01-02T23:04:23.575Z,-2.9
2023-01-02T23:06:22.225Z,-2.9
2023-01-02T23:08:19.616Z,-3.1
2023-01-02T23:10:19.492Z,-2.9
2023-01-02T23:12:19.376Z,-2.8
2023-01-02T23:14:19.200Z,-2.9
2023-01-02T23:16:19.018Z,-2.9
2023-01-02T23:18:18.806Z,-2.9
2023-01-02T23:20:20.260Z,-3
2023-01-02T23:22:18.641Z,-3
2023-01-02T23:24:21.004Z,-3
2023-01-02T23:26:19.174Z,-2.9
2023-01-02T23:28:39.428Z,-2.9
2023-01-02T23:30:18.926Z,-2.9
2023-01-02T23:32:17.954Z,-2.9
2023-01-02T23:34:20.321Z,-2.9
2023-01-02T23:36:17.793Z,-2.9
2023-01-02T23:38:17.747Z,-2.9
2023-01-02T23:40:17.356Z,-3
2023-01-02T23:42:17.092Z,-3
2023-01-02T23:44:17.781Z,-3
2023-01-02T23:46:17.111Z,-3
2023-01-02T23:48:16.731Z,-3
2023-01-02T23:50:16.660Z,-3
2023-01-02T23:52:16.404Z,-3
2023-01-02T23:54:17.272Z,-3
2023-01-02T23:56:18.435Z,-3
2023-01-02T23:58:16.094Z,-3
